Hollywood, Florida
Current Conditions -  °F | °C
As of 3:53 PM on Saturday 25 Oct 2014 (Local Time) from KFLL Reporting Station
Scattered Clouds Scattered Clouds  
Wind Chill: 82°   Ceiling: Unl
Heat Index: 83°   Visibility: 10mi
Dew Point: 62°   Wind: 14mph
Humidity: 51%   Direction: 60°ENE
Pressure: 29.87"   Gusts: 21mph
Location:  26.01°N, 80.16°W
Report Text: KFLL 251953Z 06012G18KT 10SM FEW040 SCT060 28/17 A2987 RMK AO2 SLP115 T02780167
Loading
Personal Weather Stations






























Interactive Weather Map
Tropical Storm Tracking
New forecast layout! Learn more

10-Day Weather Forecast

Advertisements
Track Severe Weather on mobile